createdAt,value
2023-05-11T00:00:44.290Z,65.70
2023-05-11T00:03:12.475Z,65.70
2023-05-11T00:05:42.132Z,65.80
2023-05-11T00:08:09.873Z,65.80
2023-05-11T00:10:37.872Z,65.70
2023-05-11T00:13:05.726Z,65.80
2023-05-11T00:15:33.406Z,65.80
2023-05-11T00:18:01.162Z,65.80
2023-05-11T00:20:28.926Z,65.80
2023-05-11T00:22:57.991Z,65.80
2023-05-11T00:25:25.707Z,65.80
2023-05-11T00:27:53.590Z,65.80
2023-05-11T00:30:21.446Z,65.70
2023-05-11T00:32:49.349Z,65.80
2023-05-11T00:35:17.215Z,65.80
2023-05-11T00:37:45.217Z,65.80
2023-05-11T00:40:14.448Z,65.90
2023-05-11T00:42:42.214Z,65.90
2023-05-11T00:45:11.347Z,65.90
2023-05-11T00:47:39.285Z,65.90
2023-05-11T00:50:08.481Z,65.90
2023-05-11T00:52:36.317Z,65.90
2023-05-11T00:55:04.116Z,65.90
2023-05-11T00:57:33.312Z,66.00
2023-05-11T01:00:04.051Z,65.90
2023-05-11T01:02:32.041Z,65.90
2023-05-11T01:05:00.724Z,65.90
2023-05-11T01:07:35.756Z,65.90
2023-05-11T01:10:14.997Z,65.90
2023-05-11T01:12:54.218Z,65.90
2023-05-11T01:15:29.093Z,66.10
2023-05-11T01:18:02.433Z,66.00
2023-05-11T01:20:31.673Z,65.90
2023-05-11T01:23:39.495Z,65.80
2023-05-11T01:26:18.377Z,65.80
2023-05-11T01:29:11.689Z,65.80
2023-05-11T01:31:43.544Z,65.90
2023-05-11T01:34:15.644Z,65.90
2023-05-11T01:36:49.275Z,65.90
2023-05-11T01:39:21.527Z,65.90
2023-05-11T01:41:54.536Z,65.90
2023-05-11T01:44:26.643Z,65.90
2023-05-11T01:46:57.132Z,65.90
2023-05-11T01:49:25.512Z,65.90
2023-05-11T01:51:54.791Z,66.00
2023-05-11T01:54:24.742Z,66.00
2023-05-11T01:56:53.990Z,66.00
2023-05-11T01:59:22.389Z,66.00
2023-05-11T02:01:50.149Z,65.90
2023-05-11T02:04:21.189Z,65.90
2023-05-11T02:06:50.751Z,65.90
2023-05-11T02:09:21.068Z,65.90
2023-05-11T02:11:50.151Z,66.00
2023-05-11T02:14:19.842Z,66.00
2023-05-11T02:16:48.986Z,66.00
2023-05-11T02:19:17.871Z,66.00
2023-05-11T02:21:49.176Z,66.00
2023-05-11T02:24:17.558Z,66.10
2023-05-11T02:26:46.173Z,66.10
2023-05-11T02:29:14.112Z,66.10
2023-05-11T02:31:45.199Z,66.10
2023-05-11T02:34:22.726Z,66.10
2023-05-11T02:36:54.339Z,66.10
2023-05-11T02:39:23.144Z,66.10
2023-05-11T02:41:56.101Z,66.10
2023-05-11T02:44:27.683Z,66.00
2023-05-11T02:46:57.916Z,66.00
2023-05-11T02:49:29.639Z,66.10
2023-05-11T02:52:01.473Z,66.10
2023-05-11T02:54:30.092Z,66.10
2023-05-11T02:56:58.248Z,66.10
2023-05-11T02:59:26.236Z,66.10
2023-05-11T03:01:54.704Z,66.10
2023-05-11T03:04:22.634Z,66.10
2023-05-11T03:06:50.669Z,66.10
2023-05-11T03:09:20.187Z,66.10
2023-05-11T03:11:48.292Z,66.10
2023-05-11T03:14:16.164Z,66.00
2023-05-11T03:16:44.892Z,66.00
2023-05-11T03:19:13.934Z,66.10
2023-05-11T03:21:41.959Z,66.00
2023-05-11T03:24:11.169Z,66.10
2023-05-11T03:26:41.998Z,66.10
2023-05-11T03:29:10.950Z,66.10
2023-05-11T03:31:38.926Z,66.10
2023-05-11T03:34:06.749Z,66.10
2023-05-11T03:36:34.880Z,66.20
2023-05-11T03:39:04.190Z,66.30
2023-05-11T03:41:34.893Z,66.20
2023-05-11T03:44:07.401Z,66.20
2023-05-11T03:46:39.974Z,66.30
2023-05-11T03:49:10.779Z,66.30
2023-05-11T03:51:41.108Z,66.30
2023-05-11T03:54:09.259Z,66.30
2023-05-11T03:56:37.541Z,66.20
2023-05-11T03:59:06.954Z,66.20
2023-05-11T04:01:34.980Z,67.00
2023-05-11T04:04:03.922Z,66.30
2023-05-11T04:06:31.634Z,66.30
2023-05-11T04:08:59.392Z,66.30
2023-05-11T04:11:27.506Z,66.30
2023-05-11T04:13:55.256Z,67.10
2023-05-11T04:16:24.416Z,66.30
2023-05-11T04:18:52.179Z,66.30
2023-05-11T04:21:20.115Z,66.30
2023-05-11T04:23:47.962Z,66.40
2023-05-11T04:26:15.963Z,66.40
2023-05-11T04:28:43.671Z,66.40
2023-05-11T04:31:11.497Z,66.40
2023-05-11T04:33:40.698Z,66.60
2023-05-11T04:36:08.734Z,66.50
2023-05-11T04:38:37.318Z,66.60
2023-05-11T04:41:05.674Z,66.60
2023-05-11T04:43:33.762Z,66.60
2023-05-11T04:46:02.820Z,66.50
2023-05-11T04:48:30.600Z,66.50
2023-05-11T04:50:59.776Z,66.40
2023-05-11T04:53:27.872Z,66.40
2023-05-11T04:55:55.595Z,66.50
2023-05-11T04:58:23.272Z,66.50
2023-05-11T05:00:51.291Z,66.50
2023-05-11T05:03:19.036Z,66.50
2023-05-11T05:05:46.758Z,66.40
2023-05-11T05:08:17.541Z,66.40
2023-05-11T05:10:45.280Z,66.50
2023-05-11T05:13:13.255Z,66.40
2023-05-11T05:15:41.133Z,66.50
2023-05-11T05:18:08.846Z,66.30
2023-05-11T05:20:36.653Z,66.30
2023-05-11T05:23:04.380Z,66.40
2023-05-11T05:25:33.460Z,66.40
2023-05-11T05:28:01.274Z,66.50
2023-05-11T05:30:29.140Z,66.50
2023-05-11T05:32:56.942Z,66.50
2023-05-11T05:35:24.800Z,66.60
2023-05-11T05:37:52.547Z,66.60
2023-05-11T05:40:20.758Z,66.70
2023-05-11T05:42:50.225Z,66.70
2023-05-11T05:45:17.957Z,66.70
2023-05-11T05:47:45.754Z,66.70
2023-05-11T05:50:13.488Z,66.50
2023-05-11T05:52:41.797Z,66.60
2023-05-11T05:55:10.048Z,66.50
2023-05-11T05:57:37.877Z,66.60
2023-05-11T06:00:10.260Z,66.60
2023-05-11T06:02:38.040Z,66.60
2023-05-11T06:05:06.478Z,66.60
2023-05-11T06:07:34.344Z,66.70
2023-05-11T06:10:02.276Z,66.60
2023-05-11T06:12:30.106Z,66.60
2023-05-11T06:14:57.873Z,66.60
2023-05-11T06:17:28.354Z,66.60
2023-05-11T06:19:56.739Z,66.70
2023-05-11T06:22:24.422Z,66.70
2023-05-11T06:24:52.609Z,66.70
2023-05-11T06:27:20.788Z,66.70
2023-05-11T06:29:48.501Z,66.80
2023-05-11T06:32:16.834Z,66.80
2023-05-11T06:34:45.888Z,66.70
2023-05-11T06:37:20.209Z,66.80
2023-05-11T06:39:48.106Z,66.80
2023-05-11T06:42:16.019Z,66.90
2023-05-11T06:44:43.802Z,66.80
2023-05-11T06:47:11.538Z,66.90
2023-05-11T06:49:39.339Z,66.90
2023-05-11T06:52:08.825Z,66.90
2023-05-11T06:54:36.724Z,66.90
2023-05-11T06:57:04.682Z,66.80
2023-05-11T06:59:32.484Z,66.80
2023-05-11T07:02:00.218Z,66.80
2023-05-11T07:04:29.743Z,66.80
2023-05-11T07:06:57.780Z,66.90
2023-05-11T07:09:26.795Z,66.90
2023-05-11T07:11:54.549Z,66.90
2023-05-11T07:14:22.338Z,67.00
2023-05-11T07:16:52.725Z,66.90
2023-05-11T07:19:20.724Z,66.90
2023-05-11T07:21:48.422Z,66.90
2023-05-11T07:24:16.123Z,66.90
2023-05-11T07:26:45.319Z,66.90
2023-05-11T07:29:13.029Z,66.70
2023-05-11T07:31:40.803Z,66.80
2023-05-11T07:34:08.608Z,66.90
2023-05-11T07:36:36.529Z,66.90
2023-05-11T07:39:04.400Z,66.90
2023-05-11T07:41:32.344Z,67.00
2023-05-11T07:44:02.728Z,67.00
2023-05-11T07:46:30.586Z,67.00
2023-05-11T07:49:11.372Z,66.80
2023-05-11T07:51:42.045Z,66.50
2023-05-11T07:54:09.885Z,66.40
2023-05-11T07:56:37.596Z,66.60
2023-05-11T07:59:06.742Z,66.90
2023-05-11T08:01:34.502Z,66.90
2023-05-11T08:04:02.711Z,67.00
2023-05-11T08:06:30.535Z,67.10
2023-05-11T08:08:58.261Z,67.20
2023-05-11T08:11:26.297Z,67.10
2023-05-11T08:13:54.025Z,67.10
2023-05-11T08:16:23.247Z,66.70
2023-05-11T08:18:51.004Z,66.70
2023-05-11T08:21:18.870Z,66.80
2023-05-11T08:23:46.630Z,66.80
2023-05-11T08:26:14.604Z,66.90
2023-05-11T08:28:42.475Z,66.80
2023-05-11T08:31:10.243Z,67.00
2023-05-11T08:33:39.489Z,66.90
2023-05-11T08:36:08.756Z,66.90
2023-05-11T08:38:36.981Z,67.00
2023-05-11T08:41:04.922Z,67.00
2023-05-11T08:43:35.279Z,67.00
2023-05-11T08:46:05.265Z,67.10
2023-05-11T08:48:33.323Z,67.10
2023-05-11T08:51:03.469Z,67.10
2023-05-11T08:53:31.620Z,67.10
2023-05-11T08:56:01.088Z,67.10
2023-05-11T08:58:30.506Z,67.10
2023-05-11T09:00:59.133Z,67.20
2023-05-11T09:03:29.537Z,67.20
2023-05-11T09:05:58.493Z,67.10
2023-05-11T09:08:31.507Z,67.10
2023-05-11T09:11:00.885Z,67.10
2023-05-11T09:13:28.959Z,67.10
2023-05-11T09:15:56.993Z,67.10
2023-05-11T09:18:24.746Z,67.00
2023-05-11T09:20:52.704Z,67.00
2023-05-11T09:23:25.035Z,67.00
2023-05-11T09:25:54.181Z,67.00
2023-05-11T09:28:25.529Z,66.90
2023-05-11T09:30:54.332Z,67.20
2023-05-11T09:33:26.668Z,67.20
2023-05-11T09:35:54.848Z,67.10
2023-05-11T09:38:26.315Z,66.90
2023-05-11T09:40:57.061Z,66.90
2023-05-11T09:43:26.756Z,66.80
2023-05-11T09:45:56.113Z,66.80
2023-05-11T09:48:29.489Z,66.80
2023-05-11T09:51:03.575Z,66.70
2023-05-11T09:53:41.064Z,66.70
2023-05-11T09:56:11.236Z,67.00
2023-05-11T09:58:54.037Z,67.10
2023-05-11T10:01:31.316Z,67.10
2023-05-11T10:04:13.964Z,67.20
2023-05-11T10:06:50.293Z,67.20
2023-05-11T10:09:19.395Z,66.80
2023-05-11T10:11:48.674Z,66.90
2023-05-11T10:14:17.192Z,66.90
2023-05-11T10:16:45.782Z,66.90
2023-05-11T10:19:14.725Z,67.00
2023-05-11T10:21:42.671Z,67.10
2023-05-11T10:24:11.678Z,67.20
2023-05-11T10:26:39.924Z,67.30
2023-05-11T10:29:10.373Z,67.20
2023-05-11T10:31:38.599Z,67.30
2023-05-11T10:34:07.626Z,67.30
2023-05-11T10:36:35.791Z,67.30
2023-05-11T10:39:03.522Z,67.30
2023-05-11T10:41:47.052Z,67.50
2023-05-11T10:44:46.509Z,67.70
2023-05-11T10:47:33.663Z,67.70
2023-05-11T10:50:21.061Z,67.60
2023-05-11T10:53:21.418Z,67.60
2023-05-11T10:56:06.151Z,67.40
2023-05-11T10:58:50.055Z,67.40
2023-05-11T11:01:37.758Z,67.40
2023-05-11T11:04:07.316Z,67.40
2023-05-11T11:06:36.583Z,67.40
2023-05-11T11:09:06.486Z,67.40
2023-05-11T11:11:36.953Z,67.50
2023-05-11T11:14:06.031Z,67.30
2023-05-11T11:16:35.294Z,67.30
2023-05-11T11:19:37.989Z,67.40
2023-05-11T11:22:06.610Z,67.80
2023-05-11T11:24:47.883Z,67.90
2023-05-11T11:27:16.219Z,68.00
2023-05-11T11:30:18.636Z,68.00
2023-05-11T11:32:48.441Z,67.90
2023-05-11T11:35:48.623Z,68.00
2023-05-11T11:38:18.213Z,68.00
2023-05-11T11:40:51.430Z,68.00
2023-05-11T11:43:22.223Z,68.20
2023-05-11T11:45:54.488Z,68.10
2023-05-11T11:48:24.943Z,68.20
2023-05-11T11:51:04.459Z,68.00
2023-05-11T11:54:00.827Z,68.70
2023-05-11T11:56:45.874Z,67.80
2023-05-11T11:59:15.499Z,67.90
2023-05-11T12:01:44.916Z,68.10
2023-05-11T12:04:39.266Z,68.10
2023-05-11T12:07:10.268Z,68.30
2023-05-11T12:09:40.859Z,68.40
2023-05-11T12:12:10.035Z,68.40
2023-05-11T12:14:38.064Z,68.30
2023-05-11T12:17:13.315Z,68.20
2023-05-11T12:19:43.269Z,68.20
2023-05-11T12:22:14.226Z,68.30
2023-05-11T12:24:42.186Z,68.50
2023-05-11T12:27:10.343Z,68.60
2023-05-11T12:29:38.822Z,68.70
2023-05-11T12:32:12.374Z,68.50
2023-05-11T12:34:40.251Z,68.70
2023-05-11T12:37:09.955Z,69.00
2023-05-11T12:39:39.456Z,69.20
2023-05-11T12:42:07.620Z,69.00
2023-05-11T12:44:35.394Z,69.60
2023-05-11T12:47:03.315Z,68.80
2023-05-11T12:49:31.091Z,68.80
2023-05-11T12:52:07.803Z,68.80
2023-05-11T12:54:38.762Z,68.90
2023-05-11T12:57:07.721Z,69.00
2023-05-11T12:59:37.309Z,69.00
2023-05-11T13:02:14.835Z,69.00
2023-05-11T13:04:43.636Z,69.20
2023-05-11T13:07:12.410Z,69.10
2023-05-11T13:09:42.527Z,69.20
2023-05-11T13:12:12.385Z,69.00
2023-05-11T13:14:40.640Z,69.00
2023-05-11T13:17:08.517Z,69.00
2023-05-11T13:19:37.511Z,69.00
2023-05-11T13:22:06.098Z,69.10
2023-05-11T13:24:34.710Z,69.10
2023-05-11T13:27:03.926Z,69.10
2023-05-11T13:29:31.747Z,69.10
2023-05-11T13:31:59.884Z,69.20
2023-05-11T13:34:27.604Z,69.20
2023-05-11T13:36:55.384Z,69.30
2023-05-11T13:39:23.069Z,69.50
2023-05-11T13:41:50.772Z,69.40
2023-05-11T13:44:19.835Z,69.50
2023-05-11T13:46:47.710Z,69.30
2023-05-11T13:49:15.733Z,69.10
2023-05-11T13:51:43.525Z,69.00
2023-05-11T13:54:13.050Z,69.00
2023-05-11T13:56:40.805Z,69.10
2023-05-11T13:59:08.517Z,69.00
2023-05-11T14:01:37.726Z,69.10
2023-05-11T14:04:06.187Z,69.10
2023-05-11T14:06:36.206Z,69.10
2023-05-11T14:09:03.962Z,69.20
2023-05-11T14:11:33.894Z,69.50
2023-05-11T14:14:01.742Z,69.50
2023-05-11T14:16:29.651Z,69.60
2023-05-11T14:18:58.910Z,69.70
2023-05-11T14:21:26.667Z,69.60
2023-05-11T14:24:09.814Z,69.50
2023-05-11T14:26:39.106Z,69.40
2023-05-11T14:29:06.969Z,69.50
2023-05-11T14:31:36.328Z,70.10
2023-05-11T14:34:05.694Z,69.40
2023-05-11T14:36:33.570Z,69.40
2023-05-11T14:39:07.835Z,69.50
2023-05-11T14:41:38.535Z,69.60
2023-05-11T14:44:06.488Z,69.60
2023-05-11T14:46:36.345Z,69.40
2023-05-11T14:49:05.706Z,69.30
2023-05-11T14:51:33.416Z,69.30
2023-05-11T14:54:01.147Z,69.20
2023-05-11T14:56:29.147Z,69.20
2023-05-11T14:58:57.151Z,69.30
2023-05-11T15:01:24.843Z,69.40
2023-05-11T15:03:52.697Z,69.20
2023-05-11T15:06:22.558Z,69.10
2023-05-11T15:08:51.797Z,69.10
2023-05-11T15:11:19.796Z,68.90
2023-05-11T15:13:48.546Z,68.90
2023-05-11T15:16:16.342Z,68.80
2023-05-11T15:18:44.096Z,69.00
2023-05-11T15:21:11.919Z,69.00
2023-05-11T15:23:41.048Z,69.00
2023-05-11T15:26:08.792Z,69.10
2023-05-11T15:28:39.049Z,69.20
2023-05-11T15:31:06.850Z,69.20
2023-05-11T15:33:34.559Z,69.20
2023-05-11T15:36:02.438Z,69.30
2023-05-11T15:38:30.618Z,69.20
2023-05-11T15:41:00.327Z,69.20
2023-05-11T15:43:28.095Z,69.00
2023-05-11T15:45:55.852Z,69.10
2023-05-11T15:48:23.584Z,69.10
2023-05-11T15:50:51.349Z,69.20
2023-05-11T15:53:20.175Z,69.00
2023-05-11T15:55:55.735Z,69.20
2023-05-11T15:58:26.717Z,69.20
2023-05-11T16:00:55.361Z,69.20
2023-05-11T16:03:24.684Z,69.20
2023-05-11T16:05:52.439Z,69.20
2023-05-11T16:08:20.282Z,69.10
2023-05-11T16:10:48.325Z,69.20
2023-05-11T16:13:16.065Z,69.20
2023-05-11T16:15:45.199Z,69.10
2023-05-11T16:18:14.012Z,69.10
2023-05-11T16:20:41.828Z,69.10
2023-05-11T16:23:10.820Z,69.10
2023-05-11T16:25:38.663Z,69.10
2023-05-11T16:28:13.939Z,69.10
2023-05-11T16:30:42.171Z,69.10
2023-05-11T16:33:11.515Z,69.00
2023-05-11T16:35:39.741Z,69.00
2023-05-11T16:38:10.564Z,69.00
2023-05-11T16:40:38.301Z,69.10
2023-05-11T16:43:06.062Z,69.00
2023-05-11T16:45:34.293Z,68.90
2023-05-11T16:48:03.504Z,68.90
2023-05-11T16:50:33.626Z,68.90
2023-05-11T16:53:02.518Z,69.00
2023-05-11T16:55:31.005Z,68.90
2023-05-11T16:57:58.958Z,68.90
2023-05-11T17:00:28.211Z,68.90
2023-05-11T17:02:56.601Z,68.90
2023-05-11T17:05:24.767Z,68.80
2023-05-11T17:07:54.411Z,68.80
2023-05-11T17:10:22.436Z,68.70
2023-05-11T17:12:50.708Z,69.50
2023-05-11T17:15:18.845Z,68.70
2023-05-11T17:17:46.845Z,68.60
2023-05-11T17:20:15.893Z,68.60
2023-05-11T17:22:44.461Z,68.60
2023-05-11T17:25:13.984Z,68.70
2023-05-11T17:27:41.922Z,68.80
2023-05-11T17:30:11.559Z,68.80
2023-05-11T17:32:39.797Z,68.80
2023-05-11T17:35:09.287Z,68.70
2023-05-11T17:37:37.331Z,68.80
2023-05-11T17:40:06.162Z,68.80
2023-05-11T17:42:38.812Z,68.80
2023-05-11T17:45:07.726Z,68.80
2023-05-11T17:47:35.562Z,68.80
2023-05-11T17:50:05.964Z,68.80
2023-05-11T17:52:37.381Z,68.80
2023-05-11T17:55:06.566Z,68.80
2023-05-11T17:57:35.679Z,68.80
2023-05-11T18:00:04.884Z,68.80
2023-05-11T18:02:33.313Z,68.80
2023-05-11T18:05:02.215Z,68.70
2023-05-11T18:07:32.089Z,68.70
2023-05-11T18:10:00.330Z,68.70
2023-05-11T18:12:30.227Z,68.70
2023-05-11T18:14:59.891Z,68.90
2023-05-11T18:17:28.813Z,68.60
2023-05-11T18:19:56.753Z,68.70
2023-05-11T18:22:24.974Z,68.70
2023-05-11T18:24:53.580Z,68.70
2023-05-11T18:27:21.280Z,68.80
2023-05-11T18:29:49.234Z,69.00
2023-05-11T18:32:21.444Z,69.00
2023-05-11T18:34:49.141Z,69.00
2023-05-11T18:37:17.483Z,69.00
2023-05-11T18:39:46.138Z,69.10
2023-05-11T18:42:14.003Z,69.00
2023-05-11T18:44:45.100Z,69.00
2023-05-11T18:47:12.957Z,69.00
2023-05-11T18:49:42.017Z,69.00
2023-05-11T18:52:09.793Z,68.90
2023-05-11T18:54:37.969Z,68.90
2023-05-11T18:57:11.563Z,68.90
2023-05-11T18:59:40.452Z,68.90
2023-05-11T19:02:16.165Z,68.70
2023-05-11T19:04:45.388Z,68.70
2023-05-11T19:07:13.459Z,68.70
2023-05-11T19:09:42.492Z,68.70
2023-05-11T19:12:10.667Z,68.70
2023-05-11T19:14:41.084Z,68.70
2023-05-11T19:17:09.171Z,68.70
2023-05-11T19:19:37.335Z,68.70
2023-05-11T19:22:09.690Z,68.70
2023-05-11T19:24:37.447Z,68.70
2023-05-11T19:27:08.064Z,68.60
2023-05-11T19:29:36.347Z,68.80
2023-05-11T19:32:04.872Z,68.80
2023-05-11T19:34:34.672Z,68.80
2023-05-11T19:37:02.435Z,68.80
2023-05-11T19:39:33.625Z,68.80
2023-05-11T19:42:01.421Z,68.90
2023-05-11T19:44:33.094Z,68.90
2023-05-11T19:47:01.039Z,69.00
2023-05-11T19:49:29.303Z,68.90
2023-05-11T19:51:57.891Z,69.00
2023-05-11T19:54:28.190Z,69.00
2023-05-11T19:56:59.938Z,68.90
2023-05-11T19:59:33.002Z,68.90
2023-05-11T20:02:01.436Z,68.90
2023-05-11T20:04:29.718Z,69.00
2023-05-11T20:06:58.523Z,69.00
2023-05-11T20:09:26.612Z,69.20
2023-05-11T20:11:54.615Z,69.10
2023-05-11T20:14:24.155Z,69.10
2023-05-11T20:16:51.917Z,69.10
2023-05-11T20:19:20.021Z,69.10
2023-05-11T20:21:50.368Z,69.20
2023-05-11T20:24:19.938Z,69.10
2023-05-11T20:26:49.485Z,69.00
2023-05-11T20:29:17.462Z,69.00
2023-05-11T20:31:47.149Z,69.00
2023-05-11T20:34:14.939Z,69.10
2023-05-11T20:36:42.726Z,69.10
2023-05-11T20:39:10.492Z,69.10
2023-05-11T20:41:38.532Z,69.10
2023-05-11T20:44:07.861Z,69.20
2023-05-11T20:46:35.564Z,69.10
2023-05-11T20:49:06.066Z,69.10
2023-05-11T20:51:34.393Z,69.10
2023-05-11T20:54:02.135Z,69.10
2023-05-11T20:56:29.906Z,69.10
2023-05-11T20:58:57.623Z,69.20
2023-05-11T21:01:25.359Z,69.20
2023-05-11T21:03:53.193Z,69.30
2023-05-11T21:06:22.200Z,69.40
2023-05-11T21:08:50.876Z,69.40
2023-05-11T21:11:18.978Z,69.40
2023-05-11T21:13:46.651Z,69.20
2023-05-11T21:16:14.396Z,69.30
2023-05-11T21:18:43.422Z,69.30
2023-05-11T21:21:11.218Z,69.40
2023-05-11T21:23:40.291Z,69.40
2023-05-11T21:26:08.161Z,69.40
2023-05-11T21:28:36.625Z,69.40
2023-05-11T21:31:04.488Z,69.40
2023-05-11T21:33:32.248Z,70.00
2023-05-11T21:36:00.050Z,69.40
2023-05-11T21:38:27.956Z,69.30
2023-05-11T21:40:57.340Z,69.40
2023-05-11T21:43:25.193Z,69.30
2023-05-11T21:45:52.952Z,69.40
2023-05-11T21:48:21.706Z,69.50
2023-05-11T21:50:53.141Z,69.40
2023-05-11T21:53:21.129Z,69.40
2023-05-11T21:55:48.978Z,69.50
2023-05-11T21:58:18.101Z,69.50
2023-05-11T22:00:46.396Z,69.50
2023-05-11T22:03:14.204Z,69.60
2023-05-11T22:05:42.322Z,69.50
2023-05-11T22:08:14.939Z,69.50
2023-05-11T22:10:43.781Z,69.50
2023-05-11T22:13:11.882Z,69.40
2023-05-11T22:15:41.075Z,69.30
2023-05-11T22:18:09.480Z,69.30
2023-05-11T22:20:37.395Z,69.40
2023-05-11T22:23:05.167Z,69.40
2023-05-11T22:25:33.115Z,69.50
2023-05-11T22:28:01.753Z,69.60
2023-05-11T22:30:29.448Z,69.60
2023-05-11T22:32:58.625Z,69.50
2023-05-11T22:35:26.733Z,69.60
2023-05-11T22:37:54.511Z,69.50
2023-05-11T22:40:22.287Z,69.60
2023-05-11T22:42:50.229Z,69.60
2023-05-11T22:45:18.569Z,69.60
2023-05-11T22:47:49.482Z,69.50
2023-05-11T22:50:20.066Z,69.60
2023-05-11T22:52:48.554Z,69.60
2023-05-11T22:55:16.353Z,69.70
2023-05-11T22:57:44.112Z,69.60
2023-05-11T23:00:13.418Z,69.60
2023-05-11T23:02:41.254Z,69.60
2023-05-11T23:05:09.604Z,69.70
2023-05-11T23:07:39.178Z,69.60
2023-05-11T23:10:07.765Z,69.70
2023-05-11T23:12:35.524Z,69.70
2023-05-11T23:15:03.909Z,69.60
2023-05-11T23:17:31.731Z,69.60
2023-05-11T23:19:59.580Z,69.60
2023-05-11T23:22:27.342Z,69.50
2023-05-11T23:24:57.742Z,69.50
2023-05-11T23:27:25.554Z,69.70
2023-05-11T23:29:53.276Z,69.60
2023-05-11T23:32:21.177Z,69.60
2023-05-11T23:34:48.892Z,69.60
2023-05-11T23:37:16.824Z,69.50
2023-05-11T23:39:44.582Z,69.50
2023-05-11T23:42:14.410Z,69.60
2023-05-11T23:44:42.382Z,69.60
2023-05-11T23:47:10.537Z,69.70
2023-05-11T23:49:38.442Z,69.70
2023-05-11T23:52:07.164Z,69.70
2023-05-11T23:54:35.027Z,69.80
2023-05-11T23:57:02.826Z,69.70
2023-05-11T23:59:32.009Z,69.80
